Time;durP1;ratioP1;P1;durP2;ratioP2;P2;SDS_P1;SDS_P2;PMS_P1;PMS_P2;Temp;Humidity;BMP_temperature;BMP_pressure;BME280_temperature;BME280_humidity;BME280_pressure;Samples;Min_cycle;Max_cycle;Signal;HPM_P1;HPM_P2
2022/06/07 00:02:07;;;;;;;40.60;21.15;;;;;;;11.75;100.00;101204.97;5075759;28;20055;-84
2022/06/07 00:04:34;;;;;;;41.53;21.67;;;;;;;11.79;100.00;101201.81;5076274;28;20051;-84
2022/06/07 00:07:00;;;;;;;35.17;20.88;;;;;;;11.81;100.00;101199.72;5075679;28;20036;-84
2022/06/07 00:09:25;;;;;;;38.45;21.60;;;;;;;11.84;100.00;101194.69;5074500;28;20419;-84
2022/06/07 00:11:53;;;;;;;39.63;21.27;;;;;;;11.87;100.00;101193.41;5074110;28;20059;-84
2022/06/07 00:14:19;;;;;;;38.15;22.02;;;;;;;11.90;100.00;101199.25;5074197;28;20036;-84
2022/06/07 00:16:45;;;;;;;42.60;22.70;;;;;;;11.93;100.00;101196.13;5074203;28;20066;-84
2022/06/07 00:19:16;;;;;;;39.17;21.45;;;;;;;11.85;100.00;101187.34;5057543;28;20039;-84
2022/06/07 00:21:41;;;;;;;38.25;22.75;;;;;;;11.89;100.00;101188.59;5073890;28;20365;-84
2022/06/07 00:24:09;;;;;;;40.53;22.83;;;;;;;11.88;100.00;101178.78;5073852;28;20039;-84
2022/06/07 00:26:38;;;;;;;41.45;23.42;;;;;;;11.90;100.00;101184.84;5074050;28;20016;-84
2022/06/07 00:29:06;;;;;;;40.78;23.52;;;;;;;11.88;100.00;101173.34;5074453;28;20024;-84
2022/06/07 00:31:33;;;;;;;41.00;23.25;;;;;;;11.92;100.00;101182.72;5075230;28;20020;-84
2022/06/07 00:33:59;;;;;;;42.13;23.40;;;;;;;11.90;100.00;101174.78;5074932;28;20035;-84
2022/06/07 00:36:24;;;;;;;43.63;23.42;;;;;;;11.89;100.00;101175.84;5074755;28;20395;-84
2022/06/07 00:38:57;;;;;;;40.57;23.53;;;;;;;11.91;100.00;101170.19;5057352;28;20032;-84
2022/06/07 00:41:23;;;;;;;37.97;21.48;;;;;;;11.91;100.00;101164.75;5074296;28;20024;-84
2022/06/07 00:44:25;;;;;;;39.53;22.30;;;;;;;12.03;100.00;101176.66;5073468;28;20047;-84
2022/06/07 00:47:01;;;;;;;33.13;20.08;;;;;;;11.92;100.00;101158.25;5074562;28;20020;-84
2022/06/07 00:49:31;;;;;;;34.28;21.13;;;;;;;11.92;100.00;101160.97;5073184;28;20053;-84
2022/06/07 00:51:56;;;;;;;33.53;19.92;;;;;;;11.87;100.00;101152.63;5074296;28;20021;-83
2022/06/07 00:54:32;;;;;;;34.80;20.83;;;;;;;11.80;100.00;101152.66;5073168;28;20119;-84
2022/06/07 00:56:57;;;;;;;33.55;20.45;;;;;;;11.82;100.00;101163.31;5073721;28;20067;-84
2022/06/07 00:59:24;;;;;;;32.10;19.50;;;;;;;11.76;100.00;101146.81;5073696;28;20068;-84
2022/06/07 01:01:53;;;;;;;34.80;19.20;;;;;;;11.90;100.00;101158.47;5073290;28;20036;-84
2022/06/07 01:04:19;;;;;;;34.17;19.10;;;;;;;11.95;100.00;101157.84;5073257;28;20028;-84
2022/06/07 01:12:20;;;;;;;30.27;18.05;;;;;;;11.97;100.00;101150.31;5074573;28;20564;-84
2022/06/07 01:14:48;;;;;;;28.67;17.70;;;;;;;11.94;100.00;101150.75;5056987;28;20476;-84
2022/06/07 01:17:13;;;;;;;28.27;15.47;;;;;;;11.96;100.00;101150.53;5073119;28;20266;-84
2022/06/07 01:19:41;;;;;;;27.58;15.88;;;;;;;11.89;100.00;101142.38;5073979;28;20037;-84
2022/06/07 01:22:07;;;;;;;20.37;14.20;;;;;;;11.94;100.00;101145.31;5073084;28;20055;-86
2022/06/07 01:24:33;;;;;;;27.65;14.45;;;;;;;11.91;100.00;101141.13;5072595;28;20476;-84
2022/06/07 01:26:58;;;;;;;23.95;14.18;;;;;;;11.90;100.00;101139.44;5072657;28;20381;-84
2022/06/07 01:29:24;;;;;;;20.47;13.93;;;;;;;11.96;100.00;101145.94;5055974;28;20037;-84
2022/06/07 01:31:51;;;;;;;24.00;13.87;;;;;;;11.88;100.00;101132.53;5073290;28;20120;-84
2022/06/07 01:34:17;;;;;;;21.88;13.90;;;;;;;11.94;100.00;101137.13;5072815;28;20028;-84
2022/06/07 01:36:42;;;;;;;21.43;12.93;;;;;;;11.95;100.00;101146.97;5072978;28;20460;-84
2022/06/07 01:41:54;;;;;;;23.42;13.63;;;;;;;11.85;100.00;101133.81;5072816;28;20040;-84
2022/06/07 01:44:25;;;;;;;23.00;12.80;;;;;;;11.85;100.00;101139.25;5072576;28;20020;-83
2022/06/07 01:46:53;;;;;;;18.65;11.15;;;;;;;11.75;100.00;101126.13;5072792;28;20128;-84
2022/06/07 01:49:19;;;;;;;17.58;11.93;;;;;;;11.80;100.00;101133.63;5072268;28;20052;-84
2022/06/07 01:51:45;;;;;;;18.17;11.87;;;;;;;11.77;100.00;101129.47;5056085;28;20066;-84
2022/06/07 01:54:12;;;;;;;16.13;10.95;;;;;;;11.75;100.00;101117.13;5074028;28;20112;-84
2022/06/07 01:56:38;;;;;;;23.73;11.02;;;;;;;11.77;100.00;101123.19;5072414;28;20028;-84
2022/06/07 01:59:04;;;;;;;16.27;9.67;;;;;;;11.78;100.00;101119.44;5072652;28;20349;-85
2022/06/07 02:01:31;;;;;;;15.30;10.07;;;;;;;11.76;99.23;101121.53;5073429;28;20036;-84
2022/06/07 02:03:56;;;;;;;15.73;9.85;;;;;;;11.74;99.01;101110.03;5072088;28;20024;-84
2022/06/07 02:06:22;;;;;;;15.63;9.00;;;;;;;11.80;98.78;101113.78;5073289;28;20491;-84
2022/06/07 02:08:48;;;;;;;15.15;8.85;;;;;;;11.73;97.94;101109.19;5072104;28;20165;-84
2022/06/07 02:11:17;;;;;;;13.23;9.05;;;;;;;11.82;98.20;101127.97;5072273;28;20418;-84
2022/06/07 02:13:46;;;;;;;13.45;8.75;;;;;;;11.79;97.43;101115.66;5074096;28;20060;-84
2022/06/07 02:16:14;;;;;;;14.03;7.90;;;;;;;11.73;96.54;101111.09;5071926;28;20075;-84
2022/06/07 02:18:41;;;;;;;12.73;8.00;;;;;;;11.74;96.16;101101.88;5056140;28;20162;-84
2022/06/07 02:21:10;;;;;;;15.90;7.70;;;;;;;11.78;96.34;101111.28;5072037;28;20507;-84
2022/06/07 02:23:41;;;;;;;14.38;7.97;;;;;;;11.80;96.42;101113.78;5071813;28;20093;-84
2022/06/07 02:26:25;;;;;;;10.65;7.28;;;;;;;11.71;96.34;101103.16;5073224;28;20036;-84
2022/06/07 02:28:55;;;;;;;11.53;6.97;;;;;;;11.76;96.06;101111.47;5073069;28;20025;-84
2022/06/07 02:31:24;;;;;;;15.60;7.50;;;;;;;11.76;96.14;101108.75;5073410;28;20472;-84
2022/06/07 02:33:50;;;;;;;12.82;6.38;;;;;;;11.71;95.26;101100.44;5071781;28;20484;-84
2022/06/07 02:36:18;;;;;;;12.40;6.55;;;;;;;11.74;95.32;101107.31;5073097;28;20031;-84
2022/06/07 02:38:44;;;;;;;10.47;6.33;;;;;;;11.69;94.94;101102.53;5073120;28;20124;-84
2022/06/07 02:41:15;;;;;;;10.27;5.80;;;;;;;11.66;95.08;101093.97;5072277;28;20538;-84
2022/06/07 02:43:40;;;;;;;9.80;6.30;;;;;;;11.65;94.74;101097.72;5071748;28;20036;-84
2022/06/07 02:46:06;;;;;;;8.50;6.30;;;;;;;11.71;94.74;101103.16;5054970;28;20407;-84
2022/06/07 02:48:31;;;;;;;7.97;5.85;;;;;;;11.65;94.11;101093.16;5055080;28;20053;-84
2022/06/07 02:50:59;;;;;;;10.00;5.80;;;;;;;11.62;94.30;101085.44;5055242;28;20512;-84
2022/06/07 02:53:24;;;;;;;10.60;5.45;;;;;;;11.70;94.35;101096.03;5058032;28;20119;-84
2022/06/07 02:55:50;;;;;;;8.00;5.60;;;;;;;11.68;93.97;101092.72;5059137;28;20086;-84
2022/06/07 02:58:15;;;;;;;7.70;5.05;;;;;;;11.65;93.43;101095.00;5075720;28;20043;-84
2022/06/07 03:00:41;;;;;;;8.40;5.27;;;;;;;11.68;93.81;101090.00;5075650;28;20362;-84
2022/06/07 03:03:10;;;;;;;8.90;5.13;;;;;;;11.63;93.31;101089.78;5058899;28;20039;-84
2022/06/07 03:05:38;;;;;;;12.32;5.25;;;;;;;11.57;92.98;101083.38;5059642;28;20061;-84
2022/06/07 03:08:07;;;;;;;8.55;4.75;;;;;;;11.61;93.06;101086.47;5058441;28;20043;-84
2022/06/07 03:10:33;;;;;;;7.43;5.10;;;;;;;11.58;93.64;101093.16;5075517;28;20028;-84
2022/06/07 03:12:58;;;;;;;9.00;4.77;;;;;;;11.56;93.15;101094.47;5075419;28;20097;-84
2022/06/07 03:15:24;;;;;;;10.27;5.00;;;;;;;11.57;92.59;101091.53;5076716;28;20157;-84
2022/06/07 03:17:52;;;;;;;10.32;5.03;;;;;;;11.66;92.63;101115.72;5076259;28;20028;-84
2022/06/07 03:20:18;;;;;;;8.13;4.77;;;;;;;11.56;92.88;101098.00;5077149;28;20162;-84
2022/06/07 03:22:43;;;;;;;7.80;4.75;;;;;;;11.64;93.07;101118.66;5075595;28;20108;-84
2022/06/07 03:25:11;;;;;;;11.33;4.63;;;;;;;11.59;92.20;101108.44;5075240;28;20445;-84
2022/06/07 03:27:41;;;;;;;10.13;4.80;;;;;;;11.56;92.13;101108.03;5075875;28;20502;-84
2022/06/07 03:30:11;;;;;;;7.57;4.95;;;;;;;11.52;92.40;101106.81;5076131;28;20032;-84
2022/06/07 03:32:38;;;;;;;10.65;4.60;;;;;;;11.56;92.31;101110.75;5075146;28;20465;-84
2022/06/07 03:35:04;;;;;;;12.40;5.03;;;;;;;11.57;92.14;101112.41;5076367;28;20021;-84
2022/06/07 03:37:30;;;;;;;12.25;4.63;;;;;;;11.60;92.40;101125.56;5076846;28;20032;-84
2022/06/07 03:39:55;;;;;;;10.47;5.03;;;;;;;11.58;92.13;101117.63;5058217;28;20037;-84
2022/06/07 03:42:23;;;;;;;8.87;4.40;;;;;;;11.52;92.36;101113.06;5058193;28;20343;-84
2022/06/07 03:44:50;;;;;;;11.45;4.43;;;;;;;11.54;92.40;101126.44;5058459;28;20431;-85
2022/06/07 03:47:19;;;;;;;12.20;4.90;;;;;;;11.54;92.24;101113.66;5076147;28;20032;-85
2022/06/07 03:49:47;;;;;;;10.43;4.70;;;;;;;11.54;92.02;101118.28;5075312;28;20376;-84
2022/06/07 03:52:17;;;;;;;10.23;5.20;;;;;;;11.55;92.00;101115.34;5076280;28;20059;-85
2022/06/07 03:54:52;;;;;;;7.88;4.70;;;;;;;11.58;91.88;101119.53;5074632;28;20553;-84
2022/06/07 03:57:20;;;;;;;7.03;4.53;;;;;;;11.65;92.19;101133.06;5075729;28;20032;-84
2022/06/07 03:59:48;;;;;;;9.00;4.60;;;;;;;11.58;91.95;101122.25;5074385;28;20086;-84
2022/06/07 04:02:14;;;;;;;10.07;4.30;;;;;;;11.65;91.98;101135.78;5076090;28;20488;-84
2022/06/07 04:04:40;;;;;;;7.45;4.57;;;;;;;11.61;91.56;101129.13;5056901;28;20547;-84
2022/06/07 04:09:50;;;;;;;8.77;4.85;;;;;;;11.65;91.75;101138.50;5075693;28;20450;-84
2022/06/07 04:12:19;;;;;;;6.03;4.38;;;;;;;11.65;91.93;101135.78;5058056;28;20055;-84
2022/06/07 04:14:46;;;;;;;10.65;4.72;;;;;;;11.72;91.69;101142.03;5075563;28;20036;-84
2022/06/07 04:17:14;;;;;;;8.97;4.73;;;;;;;11.72;91.96;101142.88;5057615;28;20039;-85
2022/06/07 04:19:43;;;;;;;11.13;5.00;;;;;;;11.70;91.28;101131.38;5073875;28;20049;-85
2022/06/07 04:22:11;;;;;;;12.18;5.07;;;;;;;11.68;91.62;101132.66;5057122;28;20059;-84
2022/06/07 04:24:37;;;;;;;9.93;5.00;;;;;;;11.69;91.70;101137.88;5074060;28;20039;-85
2022/06/07 04:27:03;;;;;;;8.90;5.25;;;;;;;11.73;91.39;101132.84;5074246;28;20078;-84
2022/06/07 04:29:29;;;;;;;10.37;5.53;;;;;;;11.75;91.14;101128.84;5073976;28;20029;-84
2022/06/07 04:32:00;;;;;;;7.15;4.97;;;;;;;11.76;91.60;101125.06;5074182;28;20029;-84
2022/06/07 04:34:30;;;;;;;9.47;5.27;;;;;;;11.85;91.32;101138.41;5074976;28;20025;-84
2022/06/07 04:36:56;;;;;;;9.13;4.88;;;;;;;11.84;90.96;101128.59;5074945;28;20078;-84
2022/06/07 04:39:21;;;;;;;9.60;5.20;;;;;;;11.91;91.66;101126.66;5057108;28;20033;-84
2022/06/07 04:41:52;;;;;;;9.88;5.38;;;;;;;11.95;90.96;101143.44;5073365;28;20040;-85
2022/06/07 04:44:19;;;;;;;10.35;5.68;;;;;;;11.98;90.09;101135.66;5074520;28;20458;-84
2022/06/07 04:46:45;;;;;;;11.57;5.40;;;;;;;12.01;89.85;101139.84;5073626;28;20060;-84
2022/06/07 04:49:10;;;;;;;8.52;5.07;;;;;;;12.09;89.46;101134.97;5056440;28;20133;-84
2022/06/07 04:51:38;;;;;;;10.43;4.47;;;;;;;12.02;89.97;101136.06;5074046;28;20450;-84
2022/06/07 04:54:05;;;;;;;10.40;5.15;;;;;;;12.14;89.94;101142.47;5073696;28;20029;-84
2022/06/07 04:56:34;;;;;;;9.40;5.43;;;;;;;12.07;90.07;101138.97;5073493;28;20032;-84
2022/06/07 04:59:01;;;;;;;11.65;5.60;;;;;;;12.09;89.87;101140.41;5073591;28;20464;-84
2022/06/07 05:01:54;;;;;;;9.63;5.45;;;;;;;12.09;90.24;101142.28;5073336;28;20031;-84
2022/06/07 05:04:20;;;;;;;9.15;5.60;;;;;;;12.16;89.98;101150.41;5058361;28;20044;-84
2022/06/07 05:06:46;;;;;;;14.37;5.60;;;;;;;12.08;90.66;101148.81;5073217;28;20020;-84
2022/06/07 05:09:17;;;;;;;11.57;5.57;;;;;;;12.05;90.30;101146.53;5074116;28;20030;-83
2022/06/07 05:11:49;;;;;;;8.52;5.55;;;;;;;12.06;90.05;101151.75;5074183;28;20451;-90
2022/06/07 05:14:21;;;;;;;12.70;5.72;;;;;;;12.12;89.83;101147.31;5056909;28;20102;-89
2022/06/07 05:19:43;;;;;;;9.57;5.70;;;;;;;12.24;89.02;101159.16;5074059;28;20037;-91
2022/06/07 05:22:21;;;;;;;11.23;5.90;;;;;;;12.35;88.83;101165.78;5073667;28;20040;-90
2022/06/07 05:25:02;;;;;;;10.85;5.72;;;;;;;12.38;88.87;101167.22;5057203;28;20127;-87
2022/06/07 05:27:43;;;;;;;8.63;5.80;;;;;;;12.42;88.51;101158.41;5072795;28;20063;-87
2022/06/07 05:30:30;;;;;;;9.87;6.00;;;;;;;12.68;87.83;101164.72;5072914;28;20468;-86
2022/06/07 05:33:01;;;;;;;9.02;6.10;;;;;;;12.73;87.15;101164.88;5074329;28;20036;-87
2022/06/07 05:35:38;;;;;;;13.48;6.22;;;;;;;12.79;86.88;101163.97;5074113;28;20036;-88
2022/06/07 05:38:07;;;;;;;14.00;6.35;;;;;;;12.80;86.80;101162.13;5056738;28;20039;-87
2022/06/07 05:40:35;;;;;;;9.88;6.30;;;;;;;12.94;86.39;101162.81;5073296;28;20039;-86
2022/06/07 05:43:08;;;;;;;12.20;6.07;;;;;;;12.96;85.89;101153.38;5056142;28;20392;-88
2022/06/07 05:45:34;;;;;;;12.45;5.97;;;;;;;12.98;86.23;101158.59;5072381;28;20025;-83
2022/06/07 05:48:04;;;;;;;15.50;6.37;;;;;;;13.04;86.54;101154.16;5071944;28;20122;-89
2022/06/07 05:50:37;;;;;;;13.73;6.23;;;;;;;13.11;86.14;101161.19;5072083;28;20278;-87
2022/06/07 05:53:05;;;;;;;11.02;5.78;;;;;;;13.18;85.70;101163.00;5040819;28;20032;-87
2022/06/07 05:55:40;;;;;;;12.25;6.32;;;;;;;13.21;85.29;101162.56;5072910;28;20059;-87
2022/06/07 05:58:13;;;;;;;14.55;6.50;;;;;;;13.20;85.04;101163.59;5071970;28;20032;-87
2022/06/07 06:04:20;;;;;;;15.87;7.00;;;;;;;13.38;86.49;101179.19;5071688;28;20132;-87
2022/06/07 06:06:57;;;;;;;14.95;7.32;;;;;;;13.37;86.01;101159.25;5056370;28;20067;-87
2022/06/07 06:12:15;;;;;;;13.13;7.68;;;;;;;13.61;84.67;101160.28;5072760;28;20133;-87
2022/06/07 06:15:04;;;;;;;13.60;7.28;;;;;;;13.64;85.17;101162.53;5071671;28;20097;-86
2022/06/07 06:17:45;;;;;;;;;;;;;;;;;;;;;
2022/06/07 06:20:18;;;;;;;13.30;7.93;;;;;;;13.77;84.88;101157.97;5072710;28;20364;-87
2022/06/07 06:22:43;;;;;;;16.45;7.88;;;;;;;13.90;84.55;101165.97;5071466;28;20157;-87
2022/06/07 06:25:19;;;;;;;12.97;7.73;;;;;;;14.02;85.02;101160.56;5071695;28;20041;-87
2022/06/07 06:27:47;;;;;;;14.52;7.47;;;;;;;14.18;84.41;101162.66;5073376;28;20021;-87
2022/06/07 06:30:25;;;;;;;15.30;8.27;;;;;;;14.44;84.56;101174.25;5058982;28;20365;-87
2022/06/07 06:32:51;;;;;;;14.43;8.50;;;;;;;14.39;83.17;101163.19;5060644;28;20033;-87
2022/06/07 06:35:20;;;;;;;18.65;8.90;;;;;;;14.46;83.02;101165.84;5076566;28;20024;-88
2022/06/07 06:37:45;;;;;;;18.17;8.43;;;;;;;14.52;82.88;101173.91;5075853;28;20032;-87
2022/06/07 06:40:14;;;;;;;17.75;9.43;;;;;;;14.51;82.82;101175.00;5075538;28;20040;-83
2022/06/07 06:42:40;;;;;;;16.52;9.63;;;;;;;14.45;83.11;101162.25;5060251;28;20109;-83
2022/06/07 06:45:08;;;;;;;16.03;9.17;;;;;;;14.39;84.18;101166.78;5077117;28;20499;-82
2022/06/07 06:47:36;;;;;;;13.50;8.93;;;;;;;14.42;83.94;101175.56;5058898;28;20036;-83
2022/06/07 06:50:02;;;;;;;17.20;9.53;;;;;;;14.30;83.98;101172.78;5059428;28;20051;-83
2022/06/07 06:52:27;;;;;;;18.10;9.18;;;;;;;14.21;85.03;101166.81;5075146;28;20028;-82
2022/06/07 06:54:55;;;;;;;16.00;9.70;;;;;;;14.16;85.13;101156.59;5075831;28;20106;-83
2022/06/07 06:57:21;;;;;;;20.25;10.25;;;;;;;14.27;85.25;101182.25;5076756;28;20029;-82
2022/06/07 06:59:49;;;;;;;18.83;9.70;;;;;;;14.26;84.81;101169.69;5075274;28;20397;-82
2022/06/07 07:02:14;;;;;;;21.63;9.82;;;;;;;14.31;85.03;101177.19;5077391;28;20028;-83
2022/06/07 07:04:40;;;;;;;16.77;10.05;;;;;;;14.43;85.41;101174.50;5075315;28;20040;-82
2022/06/07 07:07:05;;;;;;;16.00;9.00;;;;;;;14.67;84.71;101191.78;5075148;28;20472;-82
2022/06/07 07:09:31;;;;;;;16.40;9.70;;;;;;;14.68;83.73;101183.34;5042015;28;20031;-82
2022/06/07 07:11:56;;;;;;;17.10;10.93;;;;;;;14.73;83.45;101191.69;5075376;28;20043;-82
2022/06/07 07:14:22;;;;;;;16.55;10.98;;;;;;;14.65;83.56;101183.00;5077426;28;20032;-83
2022/06/07 07:16:50;;;;;;;21.07;10.60;;;;;;;14.76;84.84;101193.09;5075242;28;20024;-83
2022/06/07 07:19:17;;;;;;;19.00;10.80;;;;;;;14.72;83.09;101173.63;5076321;28;20428;-83
2022/06/07 07:21:52;;;;;;;21.02;11.10;;;;;;;14.74;84.08;101193.34;5076684;28;20121;-82
2022/06/07 07:24:21;;;;;;;22.00;10.97;;;;;;;14.73;83.37;101188.97;5059315;28;20042;-82
2022/06/07 07:26:47;;;;;;;19.38;12.10;;;;;;;14.71;84.16;101168.41;5076869;28;20064;-82
2022/06/07 07:29:21;;;;;;;21.70;12.60;;;;;;;14.94;84.39;101178.53;5075105;28;20492;-83
2022/06/07 07:31:46;;;;;;;20.98;12.40;;;;;;;15.19;83.33;101183.78;5076520;28;20033;-83
2022/06/07 07:34:14;;;;;;;18.40;12.10;;;;;;;15.37;82.89;101171.88;5058085;28;20042;-82
2022/06/07 07:36:49;;;;;;;15.77;12.20;;;;;;;15.58;82.13;101161.38;5074846;28;20044;-82
2022/06/07 07:39:15;;;;;;;16.30;11.63;;;;;;;15.74;80.46;101171.56;5075787;28;20572;-82
2022/06/07 07:41:42;;;;;;;21.37;11.50;;;;;;;15.83;80.60;101172.03;5074546;28;20119;-82
2022/06/07 07:44:11;;;;;;;18.63;10.57;;;;;;;15.86;78.98;101171.56;5074739;28;20025;-82
2022/06/07 07:46:38;;;;;;;17.63;10.88;;;;;;;15.93;80.16;101161.31;5074723;28;20469;-82
2022/06/07 07:49:07;;;;;;;19.85;10.48;;;;;;;16.08;79.36;101173.63;5074227;28;20139;-82
2022/06/07 07:51:36;;;;;;;22.60;11.17;;;;;;;16.12;78.64;101181.09;5074313;28;20024;-82
2022/06/07 07:54:03;;;;;;;14.10;9.70;;;;;;;16.14;79.02;101161.69;5074530;28;20032;-82
2022/06/07 07:56:29;;;;;;;16.23;10.35;;;;;;;16.26;78.99;101161.63;5075605;28;20036;-82
2022/06/07 07:58:56;;;;;;;15.25;10.57;;;;;;;16.59;78.10;101168.22;5075736;28;20464;-82
2022/06/07 08:01:25;;;;;;;18.63;11.90;;;;;;;16.77;76.48;101175.38;5075507;28;20032;-82
2022/06/07 08:03:52;;;;;;;19.73;11.35;;;;;;;16.96;75.15;101182.31;5073999;28;20032;-83
2022/06/07 08:06:21;;;;;;;18.40;11.25;;;;;;;17.17;75.48;101169.75;5057714;28;20032;-82
2022/06/07 08:08:50;;;;;;;14.90;11.00;;;;;;;17.16;73.74;101161.75;5074573;28;20036;-82
2022/06/07 08:11:17;;;;;;;21.13;11.07;;;;;;;17.06;72.85;101173.41;5074065;28;20036;-82
2022/06/07 08:13:42;;;;;;;18.47;11.13;;;;;;;16.96;73.55;101165.00;5074561;28;20036;-82
2022/06/07 08:16:09;;;;;;;20.23;12.90;;;;;;;16.91;74.07;101167.69;5074501;28;20047;-83
2022/06/07 08:18:35;;;;;;;17.38;12.40;;;;;;;17.12;73.64;101164.16;5058324;28;20033;-83
2022/06/07 08:21:05;;;;;;;21.87;12.23;;;;;;;17.50;73.35;101161.69;5057478;28;20037;-82
2022/06/07 08:23:31;;;;;;;20.65;12.65;;;;;;;17.70;70.66;101155.59;5075364;28;20036;-83
2022/06/07 08:25:58;;;;;;;21.80;13.50;;;;;;;17.86;69.95;101162.13;5074294;28;20123;-82
2022/06/07 08:28:26;;;;;;;21.95;13.70;;;;;;;18.00;70.02;101159.84;5075186;28;20055;-82
2022/06/07 08:31:05;;;;;;;19.17;14.13;;;;;;;17.96;69.48;101166.94;5074666;28;20082;-82
2022/06/07 08:39:04;;;;;;;17.23;12.73;;;;;;;18.26;68.04;101165.59;5074154;28;20070;-82
2022/06/07 08:41:34;;;;;;;17.80;12.15;;;;;;;18.22;67.13;101163.38;5074111;28;20028;-82
2022/06/07 08:44:04;;;;;;;14.68;10.88;;;;;;;18.12;67.17;101157.78;5074914;28;20495;-82
2022/06/07 08:46:36;;;;;;;18.10;12.20;;;;;;;18.00;68.32;101168.09;5074619;28;20440;-82
2022/06/07 08:49:03;;;;;;;17.83;11.55;;;;;;;17.93;68.16;101149.06;5073456;28;20599;-88
2022/06/07 08:51:36;;;;;;;16.90;12.07;;;;;;;18.00;67.45;101157.09;5072800;28;20029;-83
2022/06/07 08:54:18;;;;;;;14.60;11.73;;;;;;;17.91;67.45;101156.72;5073418;28;20033;-83
2022/06/07 08:56:44;;;;;;;15.23;11.50;;;;;;;17.96;66.14;101162.25;5073364;28;20130;-83
2022/06/07 08:59:17;;;;;;;18.10;11.53;;;;;;;17.93;67.78;101172.94;5073894;28;20454;-83
2022/06/07 09:01:49;;;;;;;19.45;13.98;;;;;;;17.96;67.50;101162.25;5074742;28;20380;-83
2022/06/07 09:04:22;;;;;;;16.00;13.38;;;;;;;17.95;67.07;101154.28;5073114;28;20031;-83
2022/06/07 09:06:55;;;;;;;15.70;12.30;;;;;;;17.96;66.39;101154.03;5073368;28;20426;-84
2022/06/07 09:09:23;;;;;;;15.05;11.68;;;;;;;17.93;66.40;101151.81;5072986;28;20024;-84
2022/06/07 09:15:03;;;;;;;14.90;10.02;;;;;;;18.13;66.45;101158.59;5074419;28;20550;-82
2022/06/07 09:17:37;;;;;;;12.13;9.77;;;;;;;18.20;65.58;101150.97;5074291;28;20031;-82
2022/06/07 09:20:25;;;;;;;15.80;11.30;;;;;;;18.39;65.41;101146.78;5072898;28;20111;-83
2022/06/07 09:22:55;;;;;;;15.27;10.48;;;;;;;18.53;65.09;101149.13;5073470;28;20049;-82
2022/06/07 09:25:46;;;;;;;17.60;12.07;;;;;;;18.88;65.30;101150.50;5073534;28;20033;-82
2022/06/07 09:28:30;;;;;;;8.57;7.22;;;;;;;19.22;62.04;101147.41;5072789;28;20058;-83
2022/06/07 09:31:06;;;;;;;14.77;9.50;;;;;;;19.44;62.31;101148.09;5074318;28;20094;-82
2022/06/07 09:33:35;;;;;;;13.55;9.50;;;;;;;19.55;60.96;101148.97;5073152;28;20124;-83
2022/06/07 09:36:06;;;;;;;16.13;9.10;;;;;;;19.60;62.40;101146.22;5072328;28;20028;-83
2022/06/07 09:38:42;;;;;;;10.20;8.27;;;;;;;19.78;61.94;101138.63;5072572;28;20372;-83
2022/06/07 09:41:36;;;;;;;12.13;8.57;;;;;;;19.92;60.67;101141.72;5073445;28;20024;-84
2022/06/07 09:44:23;;;;;;;14.23;8.20;;;;;;;20.02;60.51;101161.00;5072757;28;20052;-82
2022/06/07 09:47:00;;;;;;;8.43;7.07;;;;;;;19.94;58.88;101140.31;5073017;28;20024;-83
2022/06/07 09:49:53;;;;;;;10.40;7.30;;;;;;;20.04;59.44;101139.53;5072192;28;20079;-82
2022/06/07 09:52:24;;;;;;;12.03;8.10;;;;;;;20.18;57.64;101133.50;5067569;28;20036;-83
2022/06/07 09:55:18;;;;;;;9.48;6.90;;;;;;;20.54;57.18;101142.63;5072253;28;20044;-83
2022/06/07 09:58:11;;;;;;;10.32;6.25;;;;;;;20.59;56.00;101139.03;5073268;28;20093;-83
2022/06/07 10:00:48;;;;;;;9.15;5.72;;;;;;;20.26;56.25;101135.72;5072330;28;20028;-83
2022/06/07 10:03:24;;;;;;;8.15;6.05;;;;;;;19.96;56.99;101137.28;5072834;28;20020;-82
2022/06/07 10:05:53;;;;;;;9.67;5.60;;;;;;;20.26;56.72;101132.97;5071704;28;20033;-84
2022/06/07 10:08:38;;;;;;;9.35;5.28;;;;;;;20.37;57.40;101133.78;5072904;28;20020;-82
2022/06/07 10:11:32;;;;;;;10.75;6.57;;;;;;;20.27;57.00;101132.69;5073127;28;20036;-82
2022/06/07 10:14:20;;;;;;;9.85;4.95;;;;;;;20.19;55.64;101124.94;5072600;28;20036;-83
2022/06/07 10:17:23;;;;;;;7.00;4.40;;;;;;;20.44;56.06;101123.31;5072169;28;20468;-82
2022/06/07 10:20:08;;;;;;;7.33;3.57;;;;;;;20.55;54.70;101122.22;5073166;28;20036;-84
2022/06/07 10:22:59;;;;;;;6.40;3.30;;;;;;;20.66;54.96;101109.28;5071941;28;20061;-82
2022/06/07 10:25:37;;;;;;;5.75;3.83;;;;;;;21.12;53.23;101124.94;5071629;28;20377;-83
2022/06/07 10:28:15;;;;;;;5.85;4.40;;;;;;;20.85;52.65;101115.88;5072963;28;20052;-83
2022/06/07 10:30:59;;;;;;;6.28;4.30;;;;;;;20.62;52.51;101111.72;5073008;28;20387;-83
2022/06/07 10:33:47;;;;;;;8.10;4.70;;;;;;;20.23;54.00;101119.75;5073822;28;20051;-83
2022/06/07 10:37:04;;;;;;;5.15;4.65;;;;;;;19.92;54.81;101120.50;5072028;28;20032;-83
2022/06/07 10:39:43;;;;;;;10.50;4.38;;;;;;;19.61;56.61;101117.63;5051081;28;20444;-83
2022/06/07 10:42:11;;;;;;;9.13;3.60;;;;;;;19.65;57.15;101123.44;5073511;28;20033;-82
2022/06/07 10:44:47;;;;;;;7.05;3.85;;;;;;;20.15;55.64;101105.41;5071611;28;20461;-83
2022/06/07 10:47:38;;;;;;;6.53;3.80;;;;;;;20.94;53.74;101102.34;5072160;28;20035;-83
2022/06/07 10:50:19;;;;;;;8.35;4.40;;;;;;;21.80;51.74;101115.31;5073920;28;20127;-82
2022/06/07 10:53:06;;;;;;;6.85;4.82;;;;;;;22.57;50.36;101112.88;5073274;28;20055;-83
2022/06/07 10:55:51;;;;;;;6.95;3.80;;;;;;;22.52;50.03;101103.78;5071856;28;20036;-83
2022/06/07 10:58:32;;;;;;;9.20;3.85;;;;;;;22.11;50.08;101102.13;5072317;28;20024;-83
2022/06/07 11:01:17;;;;;;;5.37;3.20;;;;;;;21.77;52.62;101108.41;5071949;28;20174;-82
2022/06/07 11:03:49;;;;;;;5.50;2.90;;;;;;;21.87;50.58;101102.84;5071572;28;20089;-83
2022/06/07 11:09:41;;;;;;;6.82;2.72;;;;;;;22.60;48.89;101111.44;5073134;28;20044;-83
2022/06/07 11:12:19;;;;;;;9.02;3.47;;;;;;;22.99;46.94;101105.00;5071741;28;20025;-82
2022/06/07 11:15:09;;;;;;;7.90;3.17;;;;;;;22.75;46.53;101103.00;5074427;28;20028;-83
2022/06/07 11:18:04;;;;;;;5.65;2.80;;;;;;;22.81;47.00;101098.25;5076877;28;20112;-83
2022/06/07 11:20:32;;;;;;;6.93;2.80;;;;;;;23.47;43.11;101112.47;5075602;28;20060;-83
2022/06/07 11:23:01;;;;;;;5.60;2.53;;;;;;;23.93;43.77;101108.28;5076676;28;20111;-83
2022/06/07 11:25:33;;;;;;;6.53;2.40;;;;;;;23.64;42.80;101103.69;5075067;28;20029;-83
2022/06/07 11:28:06;;;;;;;7.13;2.20;;;;;;;23.45;43.83;101106.44;5076025;28;20032;-83
2022/06/07 11:30:36;;;;;;;5.30;2.28;;;;;;;24.50;41.13;101092.41;5074926;28;20098;-83
2022/06/07 11:33:03;;;;;;;6.13;2.20;;;;;;;25.12;40.39;101090.50;5075313;28;20373;-82
2022/06/07 11:35:49;;;;;;;4.22;2.40;;;;;;;25.29;41.14;101093.47;5057761;28;20075;-84
2022/06/07 11:38:17;;;;;;;2.78;2.10;;;;;;;26.56;39.14;101090.03;5075577;28;20021;-83
2022/06/07 11:40:43;;;;;;;4.40;1.70;;;;;;;26.57;38.12;101084.13;5075096;28;20472;-82
2022/06/07 11:43:46;;;;;;;3.47;2.30;;;;;;;25.69;40.74;101085.41;5076050;28;20020;-83
2022/06/07 11:46:25;;;;;;;9.20;2.20;;;;;;;24.90;41.01;101097.56;5074453;28;20031;-83
2022/06/07 11:48:51;;;;;;;4.45;2.00;;;;;;;24.90;40.88;101091.19;5057955;28;20060;-83
2022/06/07 11:51:19;;;;;;;4.57;2.00;;;;;;;24.24;41.70;101088.41;5075694;28;20029;-84
2022/06/07 11:54:00;;;;;;;6.45;2.50;;;;;;;24.37;42.43;101078.50;5075663;28;20040;-82
2022/06/07 11:56:43;;;;;;;5.53;2.90;;;;;;;24.49;41.78;101081.63;5074255;28;20029;-83
2022/06/07 11:59:18;;;;;;;3.65;2.00;;;;;;;24.17;42.65;101089.63;5075995;28;20036;-82
2022/06/07 12:02:07;;;;;;;3.08;1.73;;;;;;;25.58;40.91;101083.19;5075719;28;20506;-83
2022/06/07 12:04:43;;;;;;;3.97;2.40;;;;;;;26.42;40.66;101087.31;5068596;28;20123;-83
2022/06/07 12:07:21;;;;;;;4.10;2.08;;;;;;;27.37;37.33;101094.56;5074333;28;20032;-83
2022/06/07 12:09:55;;;;;;;5.63;2.30;;;;;;;26.98;37.82;101081.44;5075343;28;20109;-83